Meteo Giornale » Osservazioni meteo Italia » Milano-Malpensa

ore: 08:20 - Osservazioni Meteo Milano-Malpensa
Lat. 45° 37' N Lon. 8° 44' E Alt. 234 metri s.l.m.

sereno Europe/Rome

22 °C

Sereno

Temp. 24 Ore

19 °C

29 °C

Nord-Est

7.4 Km/h

Dew point 20 °C

Umidità 88 %

Visibilità  10 Km

Il sole sorge alle ore 05:39

Il sole tramonta alle ore 21:19

Data e Ora Cielo e Fenomeni T °C DP °C Um. % Pres. hPa Vis. km Vento km/h
Oggi h: 08:20 sereno Sereno 22 20 88 1012 10 NE 7.4
Oggi h: 07:50 sereno Sereno 22 20 88 1012 10 NE 7.4
Oggi h: 07:20 sereno Sereno 21 20 94 1012 10 N 7.4
Oggi h: 06:50 nebbia Nebbia a Strati 19 19 100 1012 10 N 3.7
Oggi h: 06:20 nebbia Banco di Nebbia 19 18 93 1012 7 N 1.8
Oggi h: 05:50 nebbia Banco di Nebbia 19 19 100 1012 6 N 5.5
Oggi h: 05:20 nebbia Banco di Nebbia 20 18 88 1011 10 N 3.7
Oggi h: 04:50 nebbia Banco di Nebbia 20 19 93 1011 10 N 5.5
Oggi h: 04:20 sereno Sereno 20 19 93 1011 10 N 5.5
Oggi h: 03:50 sereno Sereno 20 19 93 1011 10 N/NO 7.4
Oggi h: 03:20 sereno Sereno 21 20 94 1011 10 N/NO 9.3
Oggi h: 02:50 poco_nuvoloso Poco Nuvoloso 21 20 94 1011 10 N 1.8
Oggi h: 02:20 coperto_pioggia Pioggia Debole 21 20 94 1012 10 N 1.8
Oggi h: 01:20 coperto_pioggia Pioggia Debole 21 20 94 1012 10 NO 9.3
Oggi h: 00:50 coperto_pioggia Pioggia 21 20 94 1012 10 N 7.4
Oggi h: 00:20 nuvoloso_temporali Temporale con Pioggia 21 19 88 1013 10 N 11.1
Ieri h: 23:50 nuvoloso_temporali Temporale con Pioggia Debole 23 19 78 1013 10 N/NO 18.5
Ieri h: 23:20 coperto_temporali Temporale 23 19 78 1013 10 O 16.7
Ieri h: 22:50 poco_nuvoloso Poco Nuvoloso 24 19 73 1012 10 NO 11.1
Ieri h: 22:20 sereno Sereno 23 19 78 1012 10 N 7.4
Ieri h: 21:50 sereno Sereno 24 19 73 1011 10 NO 13
Ieri h: 21:20 sereno Sereno 25 19 69 1011 10 O/NO 7.4
Ieri h: 20:50 poco_nuvoloso Poco Nuvoloso 25 20 73 1011 10 N 9.3
Ieri h: 20:20 poco_nuvoloso Poco Nuvoloso 25 20 73 1011 10 N 13
Ieri h: 19:50 poco_nuvoloso Poco Nuvoloso 27 20 65 1011 10 O/NO 11.1
Ieri h: 19:20 poco_nuvoloso Poco Nuvoloso 29 20 58 1010 10 N 3.7
Ieri h: 18:20 sereno Sereno 28 20 61 1010 10 SO 13
Ieri h: 17:50 sereno Sereno 28 20 61 1011 10 O/SO 13
Ieri h: 17:20 sereno Sereno 29 19 54 1011 10 SO 7.4
Ieri h: 16:50 sereno Sereno 28 19 58 1011 10 SO 11.1
Ieri h: 16:20 sereno Sereno 28 19 58 1011 10 S/SO 9.3
Ieri h: 15:50 sereno Sereno 28 19 58 1012 10 S 9.3
Ieri h: 15:20 sereno Sereno 28 18 54 1012 10 SO 13
Ieri h: 14:50 poco_nuvoloso Poco Nuvoloso 28 19 58 1012 10 SO 11.1
Ieri h: 14:20 sereno Sereno 28 18 54 1012 10 N 7.4
Ieri h: 13:50 sereno Sereno 27 18 57 1012 10 SO 9.3
Ieri h: 13:20 sereno Sereno 26 19 65 1012 10 O/SO 9.3
Ieri h: 12:50 sereno Sereno 26 21 73 1012 10 O 9.3
Ieri h: 12:20 sereno Sereno 26 19 65 1013 10 N 3.7
Ieri h: 11:50 sereno Sereno 25 20 73 1013 10 N 5.5
Ieri h: 11:20 nuvoloso Nuvoloso 22 20 88 1013 10 N 5.5
Ieri h: 10:20 nuvoloso_temporali Temporale con Pioggia Debole 21 19 88 1014 8 N 5.5
Ieri h: 09:50 nuvoloso_temporali Temporale nelle Vicinanze 21 19 88 1013 8 N 3.7
Ieri h: 09:20 nuvoloso_temporali Temporale con Pioggia Debole 21 19 88 1013 6 SO 7.4
Ieri h: 08:50 nuvoloso_temporali Temporale con Pioggia 20 19 93 1013 5 NO 14.8